Ocate, New Mexico
Current Conditions -  °F | °C
As of 2:55 AM on Tuesday 21 Oct 2014 (Local Time) from KAXX Reporting Station
Clear Clear  
Wind Chill: 30°   Ceiling: Unl
Heat Index: 30°   Visibility: 10mi
Dew Point: 28°   Wind: 0mph
Humidity: 91%   Direction: NA
Pressure: 30.31"   Gusts: NA
Location:  36.17°N, 105.05°W
Report Text: KAXX 210855Z AUTO 00000KT 10SM CLR M01/M02 A3031 RMK AO2 T10121025
Loading
Personal Weather Stations






























Interactive Weather Map
Tropical Storm Tracking
New forecast layout! Learn more

10-Day Weather Forecast

Advertisements
Track Severe Weather on mobile